Time;durP1;ratioP1;P1;durP2;ratioP2;P2;SDS_P1;SDS_P2;PMS_P1;PMS_P2;Temp;Humidity;BMP_temperature;BMP_pressure;BME280_temperature;BME280_humidity;BME280_pressure;Samples;Min_cycle;Max_cycle;Signal;HPM_P1;HPM_P2
2023/06/18 00:00:57;;;;;;;15.00;13.30;;;;;;;12.85;71.23;96986.58;108882;1249;101666;-71
2023/06/18 00:03:44;;;;;;;15.00;11.90;;;;;;;12.80;71.41;96990.33;108865;1250;101478;-71
2023/06/18 00:06:10;;;;;;;13.50;11.40;;;;;;;12.81;71.63;96985.84;108809;1253;95612;-71
2023/06/18 00:08:37;;;;;;;16.20;12.60;;;;;;;12.83;71.58;96982.85;108905;1251;95752;-71
2023/06/18 00:11:04;;;;;;;15.60;12.60;;;;;;;12.81;71.48;96986.65;108921;1253;95664;-71
2023/06/18 00:13:30;;;;;;;18.50;13.50;;;;;;;12.79;71.47;96988.91;108939;1250;95610;-71
2023/06/18 00:15:57;;;;;;;15.20;13.00;;;;;;;12.78;71.54;96987.30;108847;1249;95663;-71
2023/06/18 00:18:24;;;;;;;15.70;13.50;;;;;;;12.71;71.54;96982.52;108877;1251;95724;-70
2023/06/18 00:20:50;;;;;;;15.30;13.00;;;;;;;12.65;71.67;96984.27;108633;1250;95725;-71
2023/06/18 00:23:17;;;;;;;16.80;14.20;;;;;;;12.61;71.74;96987.15;108827;1251;95986;-70
2023/06/18 00:25:44;;;;;;;16.70;14.20;;;;;;;12.57;71.94;96990.41;108936;1250;95913;-72
2023/06/18 00:28:10;;;;;;;17.00;13.30;;;;;;;12.58;71.89;96988.77;108934;1250;95972;-72
2023/06/18 00:30:37;;;;;;;15.20;12.90;;;;;;;12.61;71.69;96989.32;108823;1250;95758;-70
2023/06/18 00:33:05;;;;;;;16.90;13.30;;;;;;;12.61;71.76;96987.65;108668;1251;95957;-70
2023/06/18 00:35:32;;;;;;;14.30;12.00;;;;;;;12.59;71.70;96985.22;108681;1250;95892;-72
2023/06/18 00:38:03;;;;;;;15.90;12.60;;;;;;;12.55;71.75;96983.70;108867;1251;95727;-71
2023/06/18 00:40:30;;;;;;;15.10;13.00;;;;;;;12.46;71.57;96985.49;108894;1250;96067;-73
2023/06/18 00:42:56;;;;;;;14.60;13.00;;;;;;;12.36;71.77;96983.79;108902;1250;96012;-72
2023/06/18 00:45:23;;;;;;;15.30;13.20;;;;;;;12.27;71.92;96980.64;108964;1251;95971;-72
2023/06/18 00:47:50;;;;;;;15.70;12.90;;;;;;;12.26;72.16;96982.90;108923;1249;95981;-70
2023/06/18 00:50:18;;;;;;;14.70;12.50;;;;;;;12.30;72.04;96987.31;108976;1250;96563;-71
2023/06/18 00:52:47;;;;;;;14.00;12.40;;;;;;;12.29;72.10;96987.66;108602;1251;95720;-71
2023/06/18 00:55:16;;;;;;;16.00;12.40;;;;;;;12.27;72.34;96982.60;108999;1250;95808;-70
2023/06/18 00:57:49;;;;;;;14.30;12.40;;;;;;;12.23;72.17;96984.20;108926;1250;111191;-70
2023/06/18 01:00:20;;;;;;;16.60;12.70;;;;;;;12.15;72.20;96985.57;108937;1249;99917;-70
2023/06/18 01:02:49;;;;;;;14.20;12.70;;;;;;;12.04;72.20;96987.40;108904;1251;95580;-71
2023/06/18 01:05:16;;;;;;;15.00;13.20;;;;;;;11.94;72.41;96987.13;108855;1253;97073;-71
2023/06/18 01:07:47;;;;;;;15.60;13.90;;;;;;;11.88;72.66;96989.36;108872;1251;112153;-73
2023/06/18 01:10:15;;;;;;;16.40;14.00;;;;;;;11.90;72.96;96990.88;108825;1251;101338;-70
2023/06/18 01:12:45;;;;;;;16.80;14.60;;;;;;;11.95;73.08;96989.20;108872;1250;99565;-71
2023/06/18 01:15:12;;;;;;;15.00;13.00;;;;;;;11.97;72.76;96984.50;108921;1249;95834;-71
2023/06/18 01:17:41;;;;;;;16.10;13.40;;;;;;;11.97;72.63;96983.20;108965;1250;95728;-71
2023/06/18 01:20:10;;;;;;;16.20;12.00;;;;;;;11.96;72.55;96982.96;108991;1251;103701;-71
2023/06/18 01:22:53;;;;;;;13.80;12.00;;;;;;;11.95;72.50;96985.86;108909;1250;101412;-70
2023/06/18 01:25:22;;;;;;;13.60;10.90;;;;;;;11.92;72.38;96986.12;108885;1251;99990;-71
2023/06/18 01:27:50;;;;;;;15.30;11.80;;;;;;;11.89;72.41;96985.40;108649;1251;95943;-72
2023/06/18 01:30:16;;;;;;;12.50;11.10;;;;;;;11.88;72.39;96987.95;108901;1251;96134;-72
2023/06/18 01:32:43;;;;;;;12.40;11.10;;;;;;;11.85;72.33;96992.10;108874;1251;95907;-71
2023/06/18 01:35:14;;;;;;;12.80;11.40;;;;;;;11.84;72.33;96995.29;108925;1252;96470;-72
2023/06/18 01:37:50;;;;;;;14.30;11.00;;;;;;;11.81;72.38;96995.02;108838;1250;100346;-72
2023/06/18 01:40:27;;;;;;;12.10;10.80;;;;;;;11.77;72.35;96995.60;108812;1251;95522;-71
2023/06/18 01:43:29;;;;;;;13.20;11.10;;;;;;;11.75;72.24;96999.48;108895;1249;96794;-70
2023/06/18 01:46:08;;;;;;;12.20;10.90;;;;;;;11.71;72.30;96999.84;108982;1250;103086;-71
2023/06/18 01:48:38;;;;;;;12.80;10.40;;;;;;;11.67;72.33;97007.73;108894;1251;101400;-72
2023/06/18 01:51:06;;;;;;;12.20;10.80;;;;;;;11.63;72.37;97007.89;108892;1250;99929;-70
2023/06/18 01:53:37;;;;;;;12.80;11.20;;;;;;;11.59;72.35;97009.02;108872;1250;95898;-71
2023/06/18 01:56:04;;;;;;;12.40;11.00;;;;;;;11.55;72.38;97012.33;108999;1250;95589;-70
2023/06/18 01:58:33;;;;;;;13.00;10.60;;;;;;;11.50;72.47;97013.05;108949;1249;95818;-71
2023/06/18 02:01:00;;;;;;;12.90;10.20;;;;;;;11.43;72.46;97005.65;108999;1251;101427;-70
2023/06/18 02:03:27;;;;;;;13.00;10.90;;;;;;;11.41;72.57;97013.58;108673;1251;99529;-73
2023/06/18 02:05:54;;;;;;;14.10;11.00;;;;;;;11.40;72.54;97014.09;108942;1250;95646;-70
2023/06/18 02:08:21;;;;;;;12.20;10.30;;;;;;;11.39;72.59;97015.67;108845;1251;96065;-71
2023/06/18 02:10:48;;;;;;;12.30;11.00;;;;;;;11.37;72.76;97018.30;108886;1251;95654;-72
2023/06/18 02:13:15;;;;;;;14.00;11.00;;;;;;;11.35;72.69;97015.07;108909;1250;97135;-70
2023/06/18 02:15:42;;;;;;;11.80;10.30;;;;;;;11.31;72.61;97020.64;108987;1250;95644;-71
2023/06/18 02:18:09;;;;;;;11.20;10.00;;;;;;;11.27;72.59;97017.89;108944;1250;95981;-70
2023/06/18 02:20:35;;;;;;;12.40;10.40;;;;;;;11.16;72.70;97017.92;108965;1250;95919;-71
2023/06/18 02:23:03;;;;;;;15.40;10.60;;;;;;;11.09;72.76;97020.05;108938;1251;95986;-69
2023/06/18 02:25:29;;;;;;;14.80;11.00;;;;;;;11.07;73.15;97023.55;108807;1251;95693;-71
2023/06/18 02:27:57;;;;;;;11.50;10.30;;;;;;;11.10;73.21;97021.73;108779;1251;95666;-72
2023/06/18 02:30:25;;;;;;;11.70;9.90;;;;;;;11.07;73.22;97017.78;108800;1253;95880;-70
2023/06/18 02:32:53;;;;;;;11.50;9.80;;;;;;;10.99;73.10;97014.05;108819;1250;95606;-71
2023/06/18 02:35:20;;;;;;;13.00;10.40;;;;;;;10.92;73.48;97013.82;108588;1251;96678;-71
2023/06/18 02:37:47;;;;;;;13.00;10.60;;;;;;;10.88;73.59;97014.92;108893;1251;95662;-71
2023/06/18 02:40:14;;;;;;;12.60;11.10;;;;;;;10.86;73.71;97018.44;108817;1251;95664;-71
2023/06/18 02:42:47;;;;;;;12.50;10.90;;;;;;;10.87;73.75;97021.40;108801;1250;95999;-71
2023/06/18 02:45:19;;;;;;;13.90;11.60;;;;;;;10.83;73.74;97023.92;108895;1249;103551;-71
2023/06/18 02:47:47;;;;;;;13.50;11.50;;;;;;;10.78;74.01;97027.73;108889;1251;101159;-70
2023/06/18 02:50:15;;;;;;;13.00;11.70;;;;;;;10.78;73.88;97028.73;108629;1250;99918;-71
2023/06/18 02:52:42;;;;;;;12.80;11.10;;;;;;;10.80;73.99;97027.02;108874;1251;95747;-71
2023/06/18 02:55:10;;;;;;;13.00;9.90;;;;;;;10.80;73.98;97028.22;108917;1250;96024;-70
2023/06/18 02:57:38;;;;;;;11.70;10.30;;;;;;;10.77;73.76;97030.81;108895;1251;103520;-71
2023/06/18 03:00:09;;;;;;;16.10;10.60;;;;;;;10.75;73.81;97034.73;108970;1250;99952;-71
2023/06/18 03:02:40;;;;;;;13.40;10.00;;;;;;;10.74;73.91;97033.14;108905;1251;98988;-72
2023/06/18 03:05:08;;;;;;;11.10;10.00;;;;;;;10.74;73.93;97031.52;108819;1251;95742;-71
2023/06/18 03:07:35;;;;;;;13.90;10.20;;;;;;;10.75;73.82;97033.54;108610;1250;95966;-71
2023/06/18 03:10:02;;;;;;;12.20;10.90;;;;;;;10.71;73.76;97036.77;108919;1251;96243;-70
2023/06/18 03:12:29;;;;;;;11.90;10.00;;;;;;;10.67;74.00;97034.41;108956;1250;95606;-71
2023/06/18 03:14:56;;;;;;;14.80;10.80;;;;;;;10.66;74.04;97035.28;108595;1251;95901;-71
2023/06/18 03:17:23;;;;;;;15.10;11.10;;;;;;;10.65;73.97;97040.35;108887;1251;95871;-71
2023/06/18 03:19:49;;;;;;;12.00;10.70;;;;;;;10.66;74.03;97046.70;108970;1250;95636;-70
2023/06/18 03:22:16;;;;;;;13.80;10.60;;;;;;;10.66;74.16;97046.33;108948;1250;101125;-70
2023/06/18 03:24:42;;;;;;;12.00;10.80;;;;;;;10.65;74.14;97046.78;108908;1251;95647;-71
2023/06/18 03:27:09;;;;;;;11.60;10.40;;;;;;;10.60;74.22;97043.77;108888;1251;95815;-71
2023/06/18 03:29:36;;;;;;;12.00;10.50;;;;;;;10.60;74.49;97043.85;108966;1250;95834;-70
2023/06/18 03:32:03;;;;;;;12.40;11.10;;;;;;;10.61;74.65;97046.92;109039;1249;95790;-71
2023/06/18 03:34:31;;;;;;;14.20;11.90;;;;;;;10.63;74.54;97045.40;108931;1249;99959;-71
2023/06/18 03:37:00;;;;;;;15.00;11.70;;;;;;;10.64;74.52;97048.88;108795;1251;95591;-71
2023/06/18 03:39:27;;;;;;;17.20;11.50;;;;;;;10.63;74.53;97048.20;108906;1251;96014;-70
2023/06/18 03:41:54;;;;;;;13.80;11.50;;;;;;;10.64;74.68;97051.81;108859;1251;95766;-69
2023/06/18 03:44:21;;;;;;;12.20;10.80;;;;;;;10.61;74.74;97050.20;108841;1251;95598;-72
2023/06/18 03:46:48;;;;;;;13.00;11.40;;;;;;;10.57;74.72;97050.14;108820;1251;95682;-70
2023/06/18 03:49:14;;;;;;;13.90;12.30;;;;;;;10.61;74.93;97054.15;108876;1250;95586;-70
2023/06/18 03:51:41;;;;;;;13.50;11.80;;;;;;;10.64;74.86;97057.48;109010;1250;95603;-69
2023/06/18 03:54:08;;;;;;;13.00;11.50;;;;;;;10.66;74.89;97059.54;108615;1249;101635;-70
2023/06/18 03:56:34;;;;;;;12.60;10.70;;;;;;;10.68;74.98;97062.52;108910;1251;96162;-70
2023/06/18 03:59:01;;;;;;;12.40;10.90;;;;;;;10.68;75.19;97062.14;108598;1251;246147;-70
2023/06/18 04:01:28;;;;;;;14.20;11.00;;;;;;;10.70;75.28;97061.95;108838;1251;95635;-70
2023/06/18 04:03:54;;;;;;;13.30;11.80;;;;;;;10.75;75.39;97064.89;109013;1251;95795;-70
2023/06/18 04:06:21;;;;;;;15.20;11.20;;;;;;;10.79;75.43;97061.42;108751;1254;99587;-70
2023/06/18 04:08:48;;;;;;;12.70;11.40;;;;;;;10.83;75.43;97063.09;108595;1249;95740;-70
2023/06/18 04:11:14;;;;;;;16.30;13.20;;;;;;;10.87;75.40;97059.15;108613;1250;95733;-70
2023/06/18 04:13:41;;;;;;;15.40;13.80;;;;;;;10.93;75.46;97060.63;108948;1251;96083;-71
2023/06/18 04:16:09;;;;;;;17.00;14.30;;;;;;;10.98;75.52;97061.99;108946;1251;97170;-72
2023/06/18 04:18:36;;;;;;;21.80;14.90;;;;;;;11.05;75.68;97067.29;108900;1251;95631;-70
2023/06/18 04:21:02;;;;;;;18.30;14.70;;;;;;;11.11;75.71;97064.98;108983;1251;95628;-71
2023/06/18 04:23:29;;;;;;;17.50;14.90;;;;;;;11.16;75.73;97061.10;108817;1249;96029;-71
2023/06/18 04:25:56;;;;;;;19.10;14.90;;;;;;;11.21;75.84;97063.15;108862;1251;95701;-71
2023/06/18 04:28:23;;;;;;;15.50;13.90;;;;;;;11.25;75.92;97062.27;108821;1251;97437;-72
2023/06/18 04:30:50;;;;;;;16.40;14.50;;;;;;;11.29;75.82;97063.14;108922;1251;95952;-72
2023/06/18 04:33:16;;;;;;;15.40;13.60;;;;;;;11.32;75.81;97064.95;108839;1251;96510;-71
2023/06/18 04:35:45;;;;;;;19.60;14.90;;;;;;;11.34;75.94;97061.27;108844;1251;95720;-72
2023/06/18 04:38:11;;;;;;;20.90;15.70;;;;;;;11.36;75.96;97057.90;108766;1251;95842;-72
2023/06/18 04:40:38;;;;;;;16.80;14.30;;;;;;;11.39;75.84;97058.79;108819;1254;95667;-71
2023/06/18 04:43:05;;;;;;;17.90;15.20;;;;;;;11.41;75.92;97062.94;108571;1256;96123;-71
2023/06/18 04:45:32;;;;;;;17.00;14.70;;;;;;;11.43;75.99;97063.82;108918;1251;95669;-71
2023/06/18 04:47:59;;;;;;;19.40;15.30;;;;;;;11.46;75.94;97066.70;108842;1251;95657;-72
2023/06/18 04:50:25;;;;;;;18.40;15.20;;;;;;;11.49;75.95;97067.33;108891;1250;95614;-71
2023/06/18 04:52:52;;;;;;;18.70;16.00;;;;;;;11.53;75.99;97067.66;108943;1250;95644;-70
2023/06/18 04:55:19;;;;;;;17.40;15.20;;;;;;;11.57;76.17;97071.08;108855;1251;95788;-71
2023/06/18 04:57:45;;;;;;;18.30;16.30;;;;;;;11.61;76.39;97068.80;108848;1254;95725;-71
2023/06/18 05:00:13;;;;;;;20.20;18.00;;;;;;;11.64;76.47;97064.61;108785;1251;95605;-73
2023/06/18 05:02:40;;;;;;;16.30;14.30;;;;;;;11.66;76.40;97068.34;108658;1251;96527;-70
2023/06/18 05:05:07;;;;;;;16.00;13.40;;;;;;;11.70;76.24;97071.45;108975;1250;103748;-70
2023/06/18 05:07:34;;;;;;;14.80;13.20;;;;;;;11.73;76.30;97075.69;108910;1251;95782;-71
2023/06/18 05:10:01;;;;;;;15.00;13.40;;;;;;;11.76;76.23;97073.55;108908;1251;95778;-71
2023/06/18 05:12:27;;;;;;;17.70;15.60;;;;;;;11.80;76.13;97079.73;108899;1251;95586;-72
2023/06/18 05:14:54;;;;;;;17.90;16.10;;;;;;;11.84;76.38;97078.75;108633;1251;95695;-70
2023/06/18 05:17:21;;;;;;;18.10;14.50;;;;;;;11.88;76.47;97079.73;108925;1251;95596;-72
2023/06/18 05:19:48;;;;;;;16.10;14.30;;;;;;;11.93;76.51;97080.15;108900;1251;99942;-72
2023/06/18 05:22:14;;;;;;;15.20;13.50;;;;;;;11.98;76.37;97081.33;108810;1251;96717;-71
2023/06/18 05:24:41;;;;;;;16.70;15.00;;;;;;;12.04;76.37;97085.83;108902;1251;95609;-71
2023/06/18 05:27:08;;;;;;;15.90;14.20;;;;;;;12.12;76.45;97084.35;108771;1251;97287;-72
2023/06/18 05:29:34;;;;;;;14.90;12.80;;;;;;;12.20;76.64;97088.85;108654;1251;96023;-71
2023/06/18 05:32:01;;;;;;;14.10;12.60;;;;;;;12.29;76.58;97091.64;108519;1251;95631;-70
2023/06/18 05:34:28;;;;;;;15.70;13.00;;;;;;;12.39;76.51;97091.97;108845;1251;95691;-73
2023/06/18 05:36:55;;;;;;;15.50;13.50;;;;;;;12.48;76.69;97091.98;108864;1251;95890;-70
2023/06/18 05:39:21;;;;;;;15.10;13.50;;;;;;;12.57;76.73;97096.17;108917;1251;95672;-71
2023/06/18 05:41:51;;;;;;;17.40;12.90;;;;;;;12.65;76.93;97095.41;108601;1254;96111;-71
2023/06/18 05:44:17;;;;;;;15.90;13.10;;;;;;;12.75;76.88;97097.50;108769;1254;96022;-71
2023/06/18 05:46:44;;;;;;;17.60;13.00;;;;;;;12.85;76.83;97103.92;108807;1251;95599;-73
2023/06/18 05:49:11;;;;;;;17.50;13.80;;;;;;;12.97;76.93;97102.65;108871;1250;95652;-71
2023/06/18 05:51:37;;;;;;;15.90;12.60;;;;;;;13.09;77.06;97101.36;108946;1250;95934;-71
2023/06/18 05:54:04;;;;;;;15.20;13.60;;;;;;;13.20;77.03;97102.98;109016;1251;95676;-71
2023/06/18 05:56:31;;;;;;;15.30;13.60;;;;;;;13.31;76.89;97101.28;108618;1257;103716;-73
2023/06/18 05:58:57;;;;;;;15.90;14.20;;;;;;;13.43;77.20;97099.70;108895;1251;96074;-71
2023/06/18 06:01:24;;;;;;;17.70;14.50;;;;;;;13.54;77.22;97099.08;108785;1251;96030;-71
2023/06/18 06:03:51;;;;;;;17.40;14.50;;;;;;;13.65;77.05;97098.83;108893;1250;95703;-71
2023/06/18 06:06:18;;;;;;;16.00;14.10;;;;;;;13.74;76.86;97102.78;108630;1251;95960;-72
2023/06/18 06:08:45;;;;;;;15.40;13.60;;;;;;;13.82;76.65;97107.46;108867;1250;101314;-71
2023/06/18 06:11:12;;;;;;;16.50;14.20;;;;;;;13.90;76.52;97107.17;108834;1251;95943;-72
2023/06/18 06:13:38;;;;;;;17.00;13.20;;;;;;;13.96;76.56;97104.00;108625;1252;95880;-71
2023/06/18 06:16:05;;;;;;;14.30;12.80;;;;;;;14.02;76.50;97103.80;108852;1251;95670;-71
2023/06/18 06:18:32;;;;;;;15.00;13.40;;;;;;;14.09;76.38;97106.16;108874;1251;95586;-71
2023/06/18 06:20:59;;;;;;;14.90;12.30;;;;;;;14.19;76.35;97105.12;108866;1251;99874;-71
2023/06/18 06:23:26;;;;;;;13.50;12.10;;;;;;;14.32;76.37;97103.79;108808;1251;95566;-72
2023/06/18 06:25:52;;;;;;;13.40;12.00;;;;;;;14.47;76.45;97106.71;108586;1251;95893;-72
2023/06/18 06:28:19;;;;;;;13.90;12.40;;;;;;;14.61;76.39;97104.97;108939;1251;95937;-74
2023/06/18 06:30:46;;;;;;;15.00;12.30;;;;;;;14.73;76.13;97101.83;108674;1257;96487;-73
2023/06/18 06:33:13;;;;;;;13.70;12.00;;;;;;;14.86;76.34;97097.20;108754;1251;95718;-71
2023/06/18 06:35:40;;;;;;;13.20;11.70;;;;;;;14.99;76.48;97098.45;108964;1251;96015;-71
2023/06/18 06:38:06;;;;;;;12.80;11.30;;;;;;;15.11;76.52;97090.22;108956;1253;95588;-72
2023/06/18 06:40:33;;;;;;;12.60;10.40;;;;;;;15.25;76.56;97086.30;108815;1250;95907;-73
2023/06/18 06:43:00;;;;;;;12.80;9.70;;;;;;;15.38;76.35;97087.92;108791;1251;95839;-70
2023/06/18 06:45:27;;;;;;;10.90;9.80;;;;;;;15.50;76.34;97085.72;108881;1251;95749;-70
2023/06/18 06:47:54;;;;;;;11.30;10.10;;;;;;;15.64;76.26;97086.27;108813;1256;103407;-71
2023/06/18 06:50:21;;;;;;;11.40;9.40;;;;;;;15.77;75.95;97082.03;108923;1250;95829;-71
2023/06/18 06:52:48;;;;;;;12.20;9.80;;;;;;;15.90;75.80;97082.46;108959;1251;95729;-71
2023/06/18 06:55:15;;;;;;;11.00;9.50;;;;;;;16.02;75.24;97082.89;108960;1251;95780;-73
2023/06/18 06:57:42;;;;;;;11.50;8.70;;;;;;;16.11;74.73;97082.35;108936;1250;96046;-71
2023/06/18 07:00:10;;;;;;;10.50;9.30;;;;;;;16.23;74.56;97081.73;108925;1251;95637;-71
2023/06/18 07:02:37;;;;;;;11.00;8.50;;;;;;;16.35;74.41;97080.45;108828;1250;100002;-71
2023/06/18 07:05:06;;;;;;;15.40;9.40;;;;;;;16.48;74.55;97074.75;108863;1251;95540;-71
2023/06/18 07:07:33;;;;;;;9.70;8.70;;;;;;;16.64;74.47;97072.65;108808;1251;96088;-73
2023/06/18 07:10:00;;;;;;;9.80;8.80;;;;;;;16.81;74.04;97069.59;108895;1251;95632;-70
2023/06/18 07:12:26;;;;;;;10.00;8.60;;;;;;;16.96;74.03;97064.27;108920;1251;96091;-71
2023/06/18 07:14:53;;;;;;;9.80;8.80;;;;;;;17.10;73.61;97062.27;108885;1251;95639;-72
2023/06/18 07:17:20;;;;;;;10.60;8.70;;;;;;;17.21;73.28;97062.52;108992;1249;95973;-74
2023/06/18 07:19:46;;;;;;;11.50;9.40;;;;;;;17.33;73.06;97064.34;108950;1251;103910;-71
2023/06/18 07:22:13;;;;;;;9.20;8.30;;;;;;;17.44;73.00;97061.63;108989;1251;95761;-71
2023/06/18 07:24:40;;;;;;;10.10;8.80;;;;;;;17.56;72.78;97060.02;108900;1251;95675;-71
2023/06/18 07:27:06;;;;;;;9.00;8.10;;;;;;;17.70;72.68;97059.20;108900;1250;95761;-74
2023/06/18 07:29:33;;;;;;;10.20;7.70;;;;;;;17.85;72.13;97059.27;108900;1251;95743;-71
2023/06/18 07:32:00;;;;;;;8.40;7.40;;;;;;;18.04;71.32;97060.12;108513;1257;109892;-73
2023/06/18 07:34:26;;;;;;;8.80;7.80;;;;;;;18.16;70.67;97058.69;108554;1253;96045;-72
2023/06/18 07:36:53;;;;;;;8.00;6.80;;;;;;;18.27;70.34;97055.92;108917;1250;95669;-71
2023/06/18 07:39:20;;;;;;;8.50;7.20;;;;;;;18.39;70.13;97055.36;108984;1250;96104;-71
2023/06/18 07:41:47;;;;;;;6.30;5.70;;;;;;;18.53;69.15;97052.51;108999;1251;95694;-71
2023/06/18 07:44:14;;;;;;;7.30;5.80;;;;;;;18.63;68.17;97053.63;108933;1249;100113;-72
2023/06/18 07:46:43;;;;;;;6.70;6.10;;;;;;;18.72;67.59;97049.87;108893;1251;95639;-74
2023/06/18 07:49:10;;;;;;;5.90;5.40;;;;;;;18.87;67.45;97047.86;108651;1251;96135;-74
2023/06/18 07:51:37;;;;;;;6.50;5.50;;;;;;;19.04;67.47;97046.93;108850;1251;95980;-71
2023/06/18 07:54:04;;;;;;;6.70;5.30;;;;;;;19.25;67.26;97045.02;108638;1251;96131;-71
2023/06/18 07:56:31;;;;;;;6.40;5.80;;;;;;;19.52;66.98;97043.99;108955;1251;95655;-74
2023/06/18 07:58:58;;;;;;;6.60;5.70;;;;;;;19.82;66.26;97038.99;108810;1251;95630;-73
2023/06/18 08:01:24;;;;;;;6.50;5.90;;;;;;;20.19;65.06;97041.31;108962;1250;95801;-72
2023/06/18 08:03:51;;;;;;;7.20;6.40;;;;;;;20.60;64.08;97039.55;109047;1251;95597;-74
2023/06/18 08:06:18;;;;;;;6.40;5.50;;;;;;;21.04;63.66;97036.45;108913;1251;100108;-72
2023/06/18 08:08:48;;;;;;;5.50;5.00;;;;;;;21.50;62.85;97034.74;108945;1250;95582;-71
2023/06/18 08:11:15;;;;;;;6.30;5.30;;;;;;;22.06;61.41;97037.42;108782;1251;96380;-73
2023/06/18 08:13:42;;;;;;;5.30;4.80;;;;;;;22.50;60.76;97035.83;108777;1255;95661;-74
2023/06/18 08:16:09;;;;;;;7.70;5.20;;;;;;;22.86;59.79;97032.49;108825;1251;96031;-75
2023/06/18 08:18:36;;;;;;;5.70;5.20;;;;;;;23.37;59.16;97028.63;108802;1251;95653;-72
2023/06/18 08:21:04;;;;;;;5.60;4.80;;;;;;;23.87;58.00;97026.93;108731;1251;95783;-73
2023/06/18 08:23:31;;;;;;;6.20;4.50;;;;;;;24.22;57.38;97031.65;108912;1251;95709;-72
2023/06/18 08:25:58;;;;;;;5.10;4.50;;;;;;;24.50;56.42;97031.67;108764;1251;95926;-73
2023/06/18 08:28:24;;;;;;;5.00;4.60;;;;;;;24.41;55.52;97031.73;108788;1251;96091;-72
2023/06/18 08:30:51;;;;;;;6.40;4.60;;;;;;;24.21;55.19;97032.77;108880;1251;95850;-74
2023/06/18 08:33:18;;;;;;;5.40;4.90;;;;;;;24.04;54.75;97031.73;108834;1251;97078;-74
2023/06/18 08:35:45;;;;;;;6.30;5.70;;;;;;;23.96;54.50;97031.44;108899;1251;95851;-74
2023/06/18 08:38:11;;;;;;;5.60;5.00;;;;;;;23.95;54.51;97027.39;108961;1251;95781;-72
2023/06/18 08:40:52;;;;;;;5.70;4.80;;;;;;;23.78;54.20;97024.91;108808;1251;95655;-73
2023/06/18 08:43:22;;;;;;;6.60;5.10;;;;;;;23.36;54.42;97028.64;108332;1250;95737;-71
2023/06/18 08:45:52;;;;;;;7.80;5.00;;;;;;;23.14;54.89;97032.16;108901;1251;95650;-73
2023/06/18 08:48:26;;;;;;;5.80;5.20;;;;;;;23.02;55.66;97036.20;108698;1251;103449;-75
2023/06/18 08:51:03;;;;;;;9.50;5.90;;;;;;;22.94;56.37;97038.31;108932;1251;101266;-72
2023/06/18 08:53:41;;;;;;;8.40;5.90;;;;;;;22.82;56.57;97039.81;108885;1251;99682;-72
2023/06/18 08:56:08;;;;;;;6.00;5.40;;;;;;;22.57;57.17;97033.52;108283;1251;95703;-71
2023/06/18 08:58:41;;;;;;;7.00;5.30;;;;;;;22.43;57.31;97029.04;108837;1251;95732;-74
2023/06/18 09:01:09;;;;;;;5.90;4.80;;;;;;;22.82;57.76;97023.45;108851;1251;102654;-73
2023/06/18 09:03:38;;;;;;;7.80;4.50;;;;;;;23.38;57.27;97021.94;108996;1251;101312;-75
2023/06/18 09:06:05;;;;;;;4.90;4.30;;;;;;;23.61;56.14;97022.77;108917;1250;100149;-73
2023/06/18 09:08:32;;;;;;;5.60;4.60;;;;;;;23.88;55.68;97025.27;108944;1251;95902;-76
2023/06/18 09:11:00;;;;;;;16.20;4.90;;;;;;;23.96;54.61;97024.23;108621;1250;95874;-73
2023/06/18 09:13:27;;;;;;;5.20;4.70;;;;;;;23.91;54.25;97026.58;108865;1251;95643;-74
2023/06/18 09:15:54;;;;;;;5.20;4.70;;;;;;;23.86;53.57;97028.50;108931;1250;95818;-72
2023/06/18 09:18:22;;;;;;;6.50;4.30;;;;;;;23.69;53.30;97032.81;108962;1249;95587;-73
2023/06/18 09:20:49;;;;;;;5.70;4.60;;;;;;;23.52;53.11;97037.02;108971;1251;96560;-73
2023/06/18 09:23:16;;;;;;;5.00;4.50;;;;;;;23.41;52.77;97043.75;108855;1251;95729;-73
2023/06/18 09:25:50;;;;;;;5.90;5.30;;;;;;;23.26;52.69;97055.08;108881;1251;96077;-72
2023/06/18 09:28:18;;;;;;;8.40;5.60;;;;;;;22.98;53.20;97068.64;108784;1250;101239;-72
2023/06/18 09:30:57;;;;;;;8.50;5.20;;;;;;;22.52;53.86;97072.96;108723;1251;99710;-74
2023/06/18 09:33:31;;;;;;;5.10;4.30;;;;;;;21.96;53.68;97071.02;108626;1251;95603;-73
2023/06/18 09:36:08;;;;;;;8.50;3.90;;;;;;;21.50;54.49;97067.48;108873;1251;95592;-76
2023/06/18 09:38:41;;;;;;;4.00;3.20;;;;;;;21.15;55.27;97065.25;108872;1250;103907;-73
2023/06/18 09:41:17;;;;;;;;;;;;;;;20.93;56.22;97055.63;108884;1250;101126;-72
2023/06/18 09:43:48;;;;;;;4.40;2.70;;;;;;;20.79;57.05;97050.59;108827;1251;99625;-73
2023/06/18 09:46:16;;;;;;;4.50;3.30;;;;;;;20.89;57.84;97053.36;108878;1251;95621;-73
2023/06/18 09:48:45;;;;;;;5.00;3.30;;;;;;;21.31;57.83;97059.29;108643;1251;96423;-73
2023/06/18 09:51:16;;;;;;;4.90;3.20;;;;;;;21.50;57.29;97058.91;108946;1250;103452;-73
2023/06/18 09:53:43;;;;;;;5.90;3.40;;;;;;;21.54;57.17;97060.35;108980;1249;101330;-73
2023/06/18 09:56:15;;;;;;;4.70;3.70;;;;;;;21.54;57.06;97056.77;108883;1250;95633;-75
2023/06/18 09:58:48;;;;;;;5.70;3.80;;;;;;;21.49;56.92;97053.85;108841;1249;95547;-73
2023/06/18 10:01:19;;;;;;;9.10;4.70;;;;;;;21.49;57.38;97050.45;108915;1250;96526;-72
2023/06/18 10:03:46;;;;;;;5.30;4.20;;;;;;;21.83;57.98;97051.14;108798;1254;103579;-74
2023/06/18 10:06:23;;;;;;;6.80;4.60;;;;;;;22.30;58.15;97050.88;108962;1250;101301;-73
2023/06/18 10:08:57;;;;;;;6.30;4.60;;;;;;;22.75;57.80;97051.09;108440;1251;99944;-72
2023/06/18 10:11:25;;;;;;;5.70;4.60;;;;;;;23.17;57.71;97042.99;108800;1250;95647;-75
2023/06/18 10:13:58;;;;;;;5.70;4.00;;;;;;;23.63;57.44;97038.80;108941;1250;95718;-73
2023/06/18 10:16:28;;;;;;;4.60;3.60;;;;;;;24.16;56.34;97036.57;108870;1250;103501;-73
2023/06/18 10:19:03;;;;;;;5.00;3.80;;;;;;;24.42;55.31;97036.41;108553;1251;101015;-73
2023/06/18 10:21:34;;;;;;;6.80;4.90;;;;;;;24.43;54.86;97032.59;108607;1251;99544;-73
2023/06/18 10:24:13;;;;;;;7.20;5.10;;;;;;;24.31;54.49;97028.09;108818;1251;95763;-74
2023/06/18 10:26:41;;;;;;;5.20;4.20;;;;;;;24.23;54.31;97029.59;108943;1249;95808;-73
2023/06/18 10:29:10;;;;;;;6.00;5.10;;;;;;;24.06;53.84;97034.11;109006;1250;103444;-74
2023/06/18 10:31:37;;;;;;;6.60;5.90;;;;;;;24.00;54.16;97035.28;108817;1251;101389;-73
2023/06/18 10:34:08;;;;;;;7.20;5.70;;;;;;;24.04;54.65;97038.05;108891;1249;99917;-74
2023/06/18 10:36:36;;;;;;;7.10;6.10;;;;;;;24.13;54.58;97036.18;108780;1250;95628;-74
2023/06/18 10:39:13;;;;;;;6.70;5.60;;;;;;;24.14;54.36;97036.88;108829;1250;95943;-73
2023/06/18 10:41:45;;;;;;;6.90;6.00;;;;;;;24.06;54.31;97035.25;108585;1251;103969;-76
2023/06/18 10:44:12;;;;;;;5.80;4.80;;;;;;;24.17;54.37;97032.52;108854;1251;101460;-75
2023/06/18 10:46:39;;;;;;;6.70;5.00;;;;;;;24.46;54.43;97033.19;108384;1251;95730;-73
2023/06/18 10:49:17;;;;;;;6.00;5.50;;;;;;;24.78;53.72;97037.54;108937;1250;95599;-73
2023/06/18 10:52:01;;;;;;;6.20;5.60;;;;;;;24.89;52.92;97039.36;108597;1249;96354;-74
2023/06/18 10:54:30;;;;;;;6.80;5.60;;;;;;;24.86;52.75;97045.26;108932;1251;103825;-74
2023/06/18 10:56:58;;;;;;;6.20;5.60;;;;;;;24.71;52.42;97047.16;108948;1250;101960;-73
2023/06/18 10:59:44;;;;;;;7.40;6.30;;;;;;;24.54;52.34;97048.23;108560;1251;99451;-73
2023/06/18 11:02:12;;;;;;;7.10;6.20;;;;;;;24.27;52.02;97049.36;108612;1251;95876;-74
2023/06/18 11:04:39;;;;;;;7.30;6.50;;;;;;;24.01;52.40;97055.95;108674;1251;97219;-73
2023/06/18 11:07:33;;;;;;;7.20;6.50;;;;;;;23.69;52.98;97060.02;108842;1250;103551;-74
2023/06/18 11:10:05;;;;;;;7.60;6.70;;;;;;;23.36;53.62;97063.50;108295;1256;101874;-74
2023/06/18 11:12:37;;;;;;;8.70;6.10;;;;;;;23.13;54.20;97059.77;108258;1257;100246;-75
2023/06/18 11:15:08;;;;;;;5.80;5.30;;;;;;;22.83;54.08;97063.08;108309;1257;96051;-75
2023/06/18 11:17:35;;;;;;;6.00;5.40;;;;;;;22.49;54.79;97064.14;108151;1257;96085;-72
2023/06/18 11:20:03;;;;;;;6.10;5.50;;;;;;;22.24;55.61;97061.18;108289;1256;95931;-72